createdAt,value
2022-11-29T00:00:18.101Z,97.39
2022-11-29T00:01:21.792Z,97.41
2022-11-29T00:02:23.442Z,97.44
2022-11-29T00:03:25.421Z,97.57
2022-11-29T00:04:27.646Z,97.60
2022-11-29T00:05:29.373Z,97.66
2022-11-29T00:06:32.055Z,97.78
2022-11-29T00:07:34.580Z,97.86
2022-11-29T00:08:36.313Z,97.92
2022-11-29T00:09:37.956Z,97.94
2022-11-29T00:10:39.514Z,97.94
2022-11-29T00:11:59.920Z,97.87
2022-11-29T00:13:01.487Z,97.63
2022-11-29T00:14:03.157Z,97.72
2022-11-29T00:15:05.071Z,97.83
2022-11-29T00:16:11.940Z,97.83
2022-11-29T00:17:13.607Z,97.79
2022-11-29T00:18:15.209Z,97.82
2022-11-29T00:19:16.823Z,97.78
2022-11-29T00:20:18.476Z,97.87
2022-11-29T00:21:20.030Z,97.99
2022-11-29T00:22:23.747Z,98.00
2022-11-29T00:23:25.342Z,98.07
2022-11-29T00:24:26.927Z,98.12
2022-11-29T00:25:28.484Z,98.20
2022-11-29T00:26:30.032Z,98.25
2022-11-29T00:27:31.785Z,98.25
2022-11-29T00:28:33.662Z,98.29
2022-11-29T00:29:35.896Z,98.17
2022-11-29T00:30:37.464Z,98.13
2022-11-29T00:31:39.275Z,98.17
2022-11-29T00:32:40.825Z,98.24
2022-11-29T00:33:42.384Z,98.25
2022-11-29T00:34:44.239Z,98.28
2022-11-29T00:35:45.910Z,98.34
2022-11-29T00:36:47.835Z,98.36
2022-11-29T00:37:49.398Z,98.39
2022-11-29T00:38:51.003Z,98.44
2022-11-29T00:39:52.544Z,98.52
2022-11-29T00:40:54.078Z,98.53
2022-11-29T00:41:55.818Z,98.54
2022-11-29T00:42:57.436Z,98.53
2022-11-29T00:43:59.285Z,98.53
2022-11-29T00:45:00.831Z,98.51
2022-11-29T00:46:02.532Z,98.42
2022-11-29T00:47:04.142Z,98.37
2022-11-29T00:48:05.880Z,98.36
2022-11-29T00:49:07.485Z,98.31
2022-11-29T00:50:09.308Z,98.12
2022-11-29T00:51:10.888Z,98.00
2022-11-29T00:52:12.423Z,97.99
2022-11-29T00:53:14.028Z,97.96
2022-11-29T00:54:15.805Z,97.91
2022-11-29T00:55:17.423Z,97.85
2022-11-29T00:56:18.985Z,97.87
2022-11-29T00:57:20.526Z,97.95
2022-11-29T00:58:22.419Z,98.01
2022-11-29T00:59:23.974Z,98.08
2022-11-29T01:00:25.526Z,98.09
2022-11-29T01:01:27.115Z,98.05
2022-11-29T01:02:28.801Z,98.06
2022-11-29T01:03:30.507Z,98.12
2022-11-29T01:04:32.049Z,98.22
2022-11-29T01:05:33.644Z,98.26
2022-11-29T01:06:35.186Z,98.23
2022-11-29T01:07:36.778Z,98.28
2022-11-29T01:08:38.467Z,98.23
2022-11-29T01:09:40.049Z,98.23
2022-11-29T01:10:41.909Z,98.23
2022-11-29T01:11:43.479Z,98.22
2022-11-29T01:12:45.109Z,98.16
2022-11-29T01:13:46.673Z,98.18
2022-11-29T01:14:48.343Z,98.13
2022-11-29T01:15:56.211Z,98.23
2022-11-29T01:16:57.839Z,98.19
2022-11-29T01:17:59.494Z,98.15
2022-11-29T01:19:01.057Z,98.17
2022-11-29T01:20:03.435Z,98.20
2022-11-29T01:21:07.294Z,98.14
2022-11-29T01:22:08.884Z,98.20
2022-11-29T01:23:10.485Z,98.27
2022-11-29T01:24:12.085Z,98.37
2022-11-29T01:25:13.809Z,98.35
2022-11-29T01:26:21.313Z,98.35
2022-11-29T01:27:22.877Z,98.26
2022-11-29T01:28:24.694Z,98.35
2022-11-29T01:29:26.242Z,98.32
2022-11-29T01:30:27.844Z,98.29
2022-11-29T01:31:31.473Z,98.41
2022-11-29T01:32:33.005Z,98.33
2022-11-29T01:33:35.036Z,98.32
2022-11-29T01:34:37.245Z,98.36
2022-11-29T01:35:39.108Z,98.35
2022-11-29T01:36:40.655Z,98.37
2022-11-29T01:37:42.293Z,98.36
2022-11-29T01:38:43.891Z,98.40
2022-11-29T01:39:45.435Z,98.29
2022-11-29T01:41:03.286Z,98.30
2022-11-29T01:42:04.993Z,98.27
2022-11-29T01:43:16.147Z,98.26
2022-11-29T01:44:17.868Z,98.25
2022-11-29T01:45:22.449Z,98.24
2022-11-29T01:46:24.727Z,98.31
2022-11-29T01:47:26.312Z,98.20
2022-11-29T01:48:29.977Z,98.09
2022-11-29T01:49:37.584Z,98.08
2022-11-29T01:50:39.531Z,97.93
2022-11-29T01:51:43.089Z,97.83
2022-11-29T01:52:44.629Z,97.95
2022-11-29T01:53:46.276Z,97.99
2022-11-29T01:54:49.569Z,97.98
2022-11-29T01:55:53.360Z,97.95
2022-11-29T01:56:55.133Z,97.97
2022-11-29T01:57:56.671Z,98.00
2022-11-29T01:58:58.254Z,98.12
2022-11-29T02:00:03.516Z,98.13
2022-11-29T02:01:05.146Z,98.13
2022-11-29T02:02:10.224Z,98.17
2022-11-29T02:03:13.218Z,98.26
2022-11-29T02:04:14.820Z,98.26
2022-11-29T02:05:16.872Z,98.35
2022-11-29T02:06:18.441Z,98.43
2022-11-29T02:07:20.012Z,98.50
2022-11-29T02:08:31.973Z,98.55
2022-11-29T02:09:33.621Z,98.56
2022-11-29T02:11:12.149Z,98.55
2022-11-29T02:12:22.599Z,98.70
2022-11-29T02:13:39.218Z,98.66
2022-11-29T02:15:17.202Z,98.62
2022-11-29T02:16:34.667Z,98.52
2022-11-29T02:17:43.496Z,98.56
2022-11-29T02:19:01.949Z,98.48
2022-11-29T02:20:22.864Z,98.50
2022-11-29T02:21:54.869Z,98.56
2022-11-29T02:23:23.658Z,98.56
2022-11-29T02:24:49.251Z,98.51
2022-11-29T02:26:14.893Z,98.43
2022-11-29T02:27:43.631Z,98.39
2022-11-29T02:29:06.442Z,98.35
2022-11-29T02:30:24.469Z,98.24
2022-11-29T02:31:38.144Z,98.29
2022-11-29T02:32:42.654Z,98.25
2022-11-29T02:34:08.748Z,98.29
2022-11-29T02:35:19.338Z,98.36
2022-11-29T02:36:30.379Z,98.43
2022-11-29T02:37:47.967Z,98.53
2022-11-29T02:39:02.239Z,98.49
2022-11-29T02:40:34.999Z,98.44
2022-11-29T02:41:42.429Z,98.42
2022-11-29T02:42:56.464Z,98.42
2022-11-29T02:44:29.431Z,98.50
2022-11-29T02:45:43.086Z,98.56
2022-11-29T02:47:10.570Z,98.60
2022-11-29T02:48:22.489Z,98.61
2022-11-29T02:49:34.321Z,98.64
2022-11-29T02:50:42.637Z,98.56
2022-11-29T02:51:50.558Z,98.49
2022-11-29T02:53:01.203Z,98.51
2022-11-29T02:54:24.068Z,98.51
2022-11-29T02:55:46.676Z,98.58
2022-11-29T02:57:04.724Z,98.55
2022-11-29T02:58:17.068Z,98.66
2022-11-29T02:59:27.467Z,98.66
2022-11-29T03:00:29.202Z,98.73
2022-11-29T03:01:41.887Z,98.73
2022-11-29T03:02:52.127Z,98.61
2022-11-29T03:04:02.750Z,98.63
2022-11-29T03:05:37.453Z,98.55
2022-11-29T03:07:06.470Z,98.51
2022-11-29T03:08:36.180Z,98.58
2022-11-29T03:09:45.166Z,98.55
2022-11-29T03:11:16.817Z,98.70
2022-11-29T03:12:33.921Z,98.58
2022-11-29T03:13:41.260Z,98.53
2022-11-29T03:15:02.758Z,98.55
2022-11-29T03:16:29.999Z,98.62
2022-11-29T03:17:38.737Z,98.63
2022-11-29T03:19:18.223Z,98.45
2022-11-29T03:20:28.814Z,98.39
2022-11-29T03:21:37.444Z,98.34
2022-11-29T03:22:46.392Z,98.35
2022-11-29T03:23:52.923Z,98.17
2022-11-29T03:25:07.348Z,98.08
2022-11-29T03:26:11.229Z,97.92
2022-11-29T03:27:14.541Z,97.95
2022-11-29T03:28:23.722Z,97.77
2022-11-29T03:29:29.633Z,97.70
2022-11-29T03:30:32.705Z,97.75
2022-11-29T03:31:43.803Z,97.67
2022-11-29T03:33:03.130Z,97.71
2022-11-29T03:34:39.221Z,97.64
2022-11-29T03:35:50.672Z,97.60
2022-11-29T03:36:58.890Z,97.63
2022-11-29T03:38:09.461Z,97.65
2022-11-29T03:39:17.642Z,97.72
2022-11-29T03:40:21.594Z,97.74
2022-11-29T03:41:37.023Z,97.69
2022-11-29T03:42:43.552Z,97.73
2022-11-29T03:43:56.047Z,97.74
2022-11-29T03:45:03.684Z,97.74
2022-11-29T03:46:09.096Z,97.76
2022-11-29T03:47:15.262Z,97.80
2022-11-29T03:48:37.842Z,97.78
2022-11-29T03:49:53.706Z,97.79
2022-11-29T03:50:58.070Z,97.79
2022-11-29T03:52:19.627Z,97.76
2022-11-29T03:53:29.340Z,97.77
2022-11-29T03:54:38.329Z,97.80
2022-11-29T03:55:52.553Z,97.77
2022-11-29T03:56:54.640Z,97.69
2022-11-29T03:58:05.745Z,97.62
2022-11-29T03:59:07.230Z,97.54
2022-11-29T04:00:13.152Z,97.53
2022-11-29T04:01:35.957Z,97.55
2022-11-29T04:02:46.793Z,97.54
2022-11-29T04:04:12.468Z,97.44
2022-11-29T04:05:20.106Z,97.27
2022-11-29T04:06:47.019Z,97.26
2022-11-29T04:07:57.471Z,97.24
2022-11-29T04:09:23.964Z,97.17
2022-11-29T04:11:07.952Z,97.03
2022-11-29T04:12:21.760Z,96.73
2022-11-29T04:13:29.314Z,96.64
2022-11-29T04:14:39.780Z,96.69
2022-11-29T04:15:41.296Z,96.70
2022-11-29T04:17:05.162Z,96.72
2022-11-29T04:18:28.974Z,96.69
2022-11-29T04:19:36.395Z,96.76
2022-11-29T04:21:07.050Z,96.85
2022-11-29T04:22:24.137Z,96.80
2022-11-29T04:23:53.009Z,96.73
2022-11-29T04:25:26.947Z,96.56
2022-11-29T04:26:50.977Z,96.58
2022-11-29T04:28:13.686Z,96.51
2022-11-29T04:29:50.680Z,96.53
2022-11-29T04:31:04.114Z,96.60
2022-11-29T04:32:31.566Z,96.59
2022-11-29T04:33:51.129Z,96.60
2022-11-29T04:35:14.062Z,96.54
2022-11-29T04:36:31.487Z,96.33
2022-11-29T04:37:41.954Z,96.38
2022-11-29T04:39:02.344Z,96.57
2022-11-29T04:40:22.896Z,96.65
2022-11-29T04:42:10.652Z,96.85
2022-11-29T04:43:33.807Z,96.96
2022-11-29T04:45:00.925Z,96.96
2022-11-29T04:46:41.495Z,97.02
2022-11-29T04:47:52.191Z,97.10
2022-11-29T04:49:27.712Z,97.17
2022-11-29T04:50:41.368Z,97.17
2022-11-29T04:52:20.639Z,97.24
2022-11-29T04:53:34.111Z,97.28
2022-11-29T04:54:43.404Z,97.38
2022-11-29T04:56:04.296Z,97.33
2022-11-29T04:57:34.392Z,97.40
2022-11-29T04:58:52.123Z,97.42
2022-11-29T05:00:10.110Z,97.37
2022-11-29T05:01:30.353Z,97.30
2022-11-29T05:03:01.463Z,97.25
2022-11-29T05:04:22.130Z,97.14
2022-11-29T05:05:24.556Z,97.20
2022-11-29T05:06:32.740Z,97.23
2022-11-29T05:07:53.058Z,97.25
2022-11-29T05:09:07.237Z,97.33
2022-11-29T05:10:52.815Z,97.32
2022-11-29T05:12:09.360Z,97.31
2022-11-29T05:13:31.483Z,97.21
2022-11-29T05:15:14.842Z,97.25
2022-11-29T05:16:37.448Z,97.12
2022-11-29T05:18:05.616Z,97.18
2022-11-29T05:19:29.844Z,97.31
2022-11-29T05:20:36.696Z,97.36
2022-11-29T05:21:47.380Z,97.33
2022-11-29T05:22:51.778Z,97.28
2022-11-29T05:24:19.423Z,97.27
2022-11-29T05:25:32.628Z,97.22
2022-11-29T05:26:41.690Z,97.22
2022-11-29T05:27:51.500Z,97.26
2022-11-29T05:28:58.859Z,97.23
2022-11-29T05:30:03.141Z,97.20
2022-11-29T05:31:26.317Z,97.12
2022-11-29T05:32:34.954Z,97.09
2022-11-29T05:34:00.975Z,97.07
2022-11-29T05:35:27.372Z,97.24
2022-11-29T05:36:31.720Z,97.26
2022-11-29T05:37:38.143Z,97.29
2022-11-29T05:38:49.178Z,97.27
2022-11-29T05:40:22.647Z,97.22
2022-11-29T05:41:46.509Z,97.26
2022-11-29T05:42:55.113Z,97.09
2022-11-29T05:44:27.875Z,96.96
2022-11-29T05:45:34.709Z,96.83
2022-11-29T05:46:50.050Z,96.92
2022-11-29T05:47:55.295Z,96.84
2022-11-29T05:49:24.041Z,96.93
2022-11-29T05:50:57.534Z,96.94
2022-11-29T05:52:17.589Z,96.83
2022-11-29T05:53:25.703Z,96.82
2022-11-29T05:54:32.670Z,96.67
2022-11-29T05:55:55.200Z,96.56
2022-11-29T05:57:18.662Z,96.57
2022-11-29T05:58:47.926Z,96.38
2022-11-29T05:59:49.737Z,96.56
2022-11-29T06:01:15.923Z,96.61
2022-11-29T06:02:26.529Z,96.76
2022-11-29T06:03:39.364Z,96.75
2022-11-29T06:04:40.920Z,96.70
2022-11-29T06:05:56.709Z,96.67
2022-11-29T06:07:07.393Z,96.69
2022-11-29T06:08:43.038Z,96.71
2022-11-29T06:09:50.270Z,96.72
2022-11-29T06:11:02.741Z,96.46
2022-11-29T06:12:14.902Z,96.45
2022-11-29T06:13:35.857Z,96.32
2022-11-29T06:15:17.273Z,96.02
2022-11-29T06:16:24.917Z,96.10
2022-11-29T06:17:53.047Z,96.42
2022-11-29T06:19:03.400Z,96.40
2022-11-29T06:20:26.827Z,96.27
2022-11-29T06:21:45.141Z,96.43
2022-11-29T06:22:52.816Z,96.35
2022-11-29T06:24:00.872Z,96.47
2022-11-29T06:25:07.836Z,96.59
2022-11-29T06:26:29.180Z,96.78
2022-11-29T06:28:02.400Z,96.83
2022-11-29T06:29:25.276Z,96.61
2022-11-29T06:30:29.593Z,96.55
2022-11-29T06:31:43.442Z,96.45
2022-11-29T06:32:56.825Z,96.52
2022-11-29T06:34:10.314Z,96.47
2022-11-29T06:35:39.398Z,96.43
2022-11-29T06:36:56.193Z,96.24
2022-11-29T06:37:57.777Z,96.33
2022-11-29T06:38:59.580Z,96.29
2022-11-29T06:40:01.385Z,96.09
2022-11-29T06:41:03.118Z,95.89
2022-11-29T06:42:04.790Z,96.08
2022-11-29T06:43:06.648Z,96.02
2022-11-29T06:44:09.415Z,95.86
2022-11-29T06:45:12.633Z,96.09
2022-11-29T06:46:26.425Z,96.18
2022-11-29T06:47:49.965Z,96.09
2022-11-29T06:49:33.522Z,96.06
2022-11-29T06:50:43.208Z,95.84
2022-11-29T06:51:50.787Z,95.79
2022-11-29T06:53:27.462Z,95.58
2022-11-29T06:54:42.279Z,95.33
2022-11-29T06:55:49.813Z,95.33
2022-11-29T06:57:17.018Z,95.33
2022-11-29T06:58:35.989Z,95.38
2022-11-29T06:59:57.154Z,95.38
2022-11-29T07:01:07.727Z,95.42
2022-11-29T07:02:36.238Z,95.48
2022-11-29T07:03:56.134Z,95.58
2022-11-29T07:05:14.783Z,95.59
2022-11-29T07:06:25.521Z,95.77
2022-11-29T07:07:27.349Z,95.77
2022-11-29T07:08:29.114Z,95.76
2022-11-29T07:09:33.755Z,95.79
2022-11-29T07:10:37.382Z,95.75
2022-11-29T07:11:39.400Z,95.69
2022-11-29T07:12:41.266Z,95.73
2022-11-29T07:13:43.070Z,95.80
2022-11-29T07:14:45.481Z,95.79
2022-11-29T07:16:08.998Z,95.38
2022-11-29T07:17:37.694Z,95.28
2022-11-29T07:18:44.668Z,95.34
2022-11-29T07:20:04.428Z,95.08
2022-11-29T07:21:20.560Z,95.07
2022-11-29T07:22:34.350Z,95.00
2022-11-29T07:23:36.593Z,95.03
2022-11-29T07:24:56.487Z,95.18
2022-11-29T07:26:00.907Z,95.15
2022-11-29T07:27:15.962Z,95.07
2022-11-29T07:28:30.987Z,95.06
2022-11-29T07:29:35.109Z,94.83
2022-11-29T07:31:10.776Z,94.82
2022-11-29T07:32:34.492Z,95.23
2022-11-29T07:33:51.256Z,95.47
2022-11-29T07:35:03.583Z,95.63
2022-11-29T07:36:16.230Z,95.48
2022-11-29T07:37:26.378Z,95.67
2022-11-29T07:39:01.830Z,95.76
2022-11-29T07:40:11.067Z,95.66
2022-11-29T07:41:20.153Z,95.74
2022-11-29T07:42:30.510Z,95.67
2022-11-29T07:43:41.270Z,95.31
2022-11-29T07:44:58.987Z,95.55
2022-11-29T07:46:00.538Z,95.52
2022-11-29T07:47:02.116Z,95.26
2022-11-29T07:48:04.098Z,95.11
2022-11-29T07:49:06.009Z,95.21
2022-11-29T07:50:08.057Z,95.18
2022-11-29T07:51:09.614Z,95.36
2022-11-29T07:52:12.442Z,95.38
2022-11-29T07:53:17.891Z,95.43
2022-11-29T07:54:19.908Z,95.53
2022-11-29T07:55:22.459Z,95.66
2022-11-29T07:56:24.011Z,95.68
2022-11-29T07:57:25.549Z,95.78
2022-11-29T07:58:27.138Z,95.73
2022-11-29T07:59:28.703Z,95.77
2022-11-29T08:00:30.319Z,95.89
2022-11-29T08:01:31.871Z,95.81
2022-11-29T08:02:33.538Z,95.78
2022-11-29T08:03:35.665Z,95.71
2022-11-29T08:04:42.292Z,95.80
2022-11-29T08:05:46.150Z,95.60
2022-11-29T08:06:47.862Z,95.61
2022-11-29T08:07:49.508Z,95.64
2022-11-29T08:08:51.098Z,95.57
2022-11-29T08:09:52.697Z,95.47
2022-11-29T08:10:54.301Z,95.57
2022-11-29T08:11:55.862Z,95.55
2022-11-29T08:12:57.509Z,95.68
2022-11-29T08:14:03.472Z,95.77
2022-11-29T08:15:05.683Z,95.42
2022-11-29T08:16:07.570Z,95.24
2022-11-29T08:17:09.237Z,95.13
2022-11-29T08:18:10.806Z,95.11
2022-11-29T08:19:12.349Z,95.09
2022-11-29T08:20:14.842Z,95.11
2022-11-29T08:21:18.191Z,95.09
2022-11-29T08:22:19.898Z,95.18
2022-11-29T08:23:21.521Z,95.06
2022-11-29T08:24:23.093Z,95.14
2022-11-29T08:25:25.473Z,95.11
2022-11-29T08:26:31.366Z,94.94
2022-11-29T08:27:34.086Z,94.82
2022-11-29T08:28:35.665Z,94.63
2022-11-29T08:29:37.297Z,94.61
2022-11-29T08:30:38.959Z,94.45
2022-11-29T08:31:40.579Z,94.33
2022-11-29T08:32:44.848Z,94.10
2022-11-29T08:33:50.125Z,94.17
2022-11-29T08:34:51.699Z,94.23
2022-11-29T08:35:53.327Z,94.25
2022-11-29T08:36:55.599Z,94.26
2022-11-29T08:37:57.192Z,94.12
2022-11-29T08:39:05.936Z,93.98
2022-11-29T08:40:10.992Z,93.86
2022-11-29T08:41:14.481Z,93.74
2022-11-29T08:42:16.063Z,93.46
2022-11-29T08:43:17.635Z,93.43
2022-11-29T08:44:19.479Z,93.54
2022-11-29T08:45:21.043Z,93.52
2022-11-29T08:46:22.786Z,93.55
2022-11-29T08:47:36.332Z,93.50
2022-11-29T08:48:37.872Z,93.46
2022-11-29T08:49:59.391Z,93.58
2022-11-29T08:51:01.017Z,93.28
2022-11-29T08:52:41.076Z,92.97
2022-11-29T08:53:42.862Z,92.84
2022-11-29T08:54:44.927Z,93.05
2022-11-29T08:55:46.989Z,92.99
2022-11-29T08:58:11.894Z,92.61
2022-11-29T08:59:13.445Z,92.88
2022-11-29T09:00:15.327Z,92.57
2022-11-29T09:01:17.983Z,92.53
2022-11-29T09:02:19.889Z,92.47
2022-11-29T09:03:40.027Z,92.58
2022-11-29T09:04:41.651Z,92.23
2022-11-29T09:05:43.677Z,92.20
2022-11-29T09:06:45.251Z,92.13
2022-11-29T09:07:47.118Z,91.82
2022-11-29T09:08:48.673Z,91.41
2022-11-29T09:09:50.224Z,90.94
2022-11-29T09:10:51.799Z,90.97
2022-11-29T09:11:53.450Z,90.49
2022-11-29T09:12:55.192Z,90.30
2022-11-29T09:13:58.481Z,89.61
2022-11-29T09:15:00.139Z,89.52
2022-11-29T09:16:07.134Z,89.79
2022-11-29T09:17:08.806Z,90.03
2022-11-29T09:18:10.415Z,90.34
2022-11-29T09:19:13.662Z,90.63
2022-11-29T09:20:15.268Z,90.34
2022-11-29T09:21:16.978Z,90.28
2022-11-29T09:22:18.542Z,90.61
2022-11-29T09:23:20.164Z,90.60
2022-11-29T09:24:21.728Z,90.34
2022-11-29T09:25:23.298Z,90.48
2022-11-29T09:26:27.304Z,90.34
2022-11-29T09:27:28.960Z,90.03
2022-11-29T09:28:30.797Z,90.14
2022-11-29T09:29:32.463Z,90.30
2022-11-29T09:30:36.589Z,90.22
2022-11-29T09:31:38.215Z,89.75
2022-11-29T09:32:39.822Z,89.52
2022-11-29T09:33:41.474Z,89.69
2022-11-29T09:34:43.327Z,89.55
2022-11-29T09:35:45.298Z,89.66
2022-11-29T09:36:47.877Z,89.68
2022-11-29T09:37:49.454Z,89.05
2022-11-29T09:38:51.012Z,89.73
2022-11-29T09:39:52.556Z,88.99
2022-11-29T09:40:55.779Z,89.20
2022-11-29T09:41:57.275Z,90.07
2022-11-29T09:43:17.729Z,90.20
2022-11-29T09:44:31.594Z,89.92
2022-11-29T09:45:37.437Z,89.69
2022-11-29T09:46:45.223Z,89.78
2022-11-29T09:48:02.358Z,89.59
2022-11-29T09:49:07.884Z,89.99
2022-11-29T09:50:36.371Z,90.13
2022-11-29T09:51:55.729Z,90.07
2022-11-29T09:53:20.938Z,90.14
2022-11-29T09:54:36.102Z,89.80
2022-11-29T09:55:56.152Z,89.93
2022-11-29T09:56:57.725Z,90.06
2022-11-29T09:57:59.691Z,89.73
2022-11-29T09:59:12.117Z,89.58
2022-11-29T10:00:18.127Z,89.21
2022-11-29T10:01:23.555Z,89.49
2022-11-29T10:02:59.078Z,88.53
2022-11-29T10:04:02.731Z,87.99
2022-11-29T10:05:10.411Z,88.21
2022-11-29T10:06:24.751Z,88.06
2022-11-29T10:07:37.538Z,88.09
2022-11-29T10:08:45.581Z,87.97
2022-11-29T10:09:52.395Z,87.75
2022-11-29T10:10:57.635Z,88.04
2022-11-29T10:12:36.156Z,87.90
2022-11-29T10:13:40.573Z,87.80
2022-11-29T10:15:09.111Z,87.42
2022-11-29T10:16:19.621Z,87.24
2022-11-29T10:17:34.534Z,87.02
2022-11-29T10:18:48.821Z,87.33
2022-11-29T10:19:51.913Z,87.08
2022-11-29T10:20:54.326Z,87.06
2022-11-29T10:22:02.341Z,87.06
2022-11-29T10:23:36.638Z,86.63
2022-11-29T10:24:38.178Z,86.68
2022-11-29T10:25:44.660Z,86.78
2022-11-29T10:26:46.534Z,86.85
2022-11-29T10:27:48.125Z,86.81
2022-11-29T10:28:49.759Z,87.12
2022-11-29T10:29:51.474Z,86.94
2022-11-29T10:30:54.166Z,86.78
2022-11-29T10:31:56.956Z,87.12
2022-11-29T10:32:59.432Z,87.01
2022-11-29T10:34:02.572Z,87.09
2022-11-29T10:35:06.065Z,87.06
2022-11-29T10:36:23.876Z,87.43
2022-11-29T10:37:25.469Z,87.85
2022-11-29T10:38:31.399Z,87.60
2022-11-29T10:39:45.488Z,86.98
2022-11-29T10:40:48.155Z,87.16
2022-11-29T10:41:51.751Z,87.17
2022-11-29T10:42:53.879Z,87.31
2022-11-29T10:43:58.043Z,87.48
2022-11-29T10:45:00.140Z,87.41
2022-11-29T10:46:02.643Z,87.63
2022-11-29T10:47:09.317Z,87.69
2022-11-29T10:48:23.098Z,87.11
2022-11-29T10:49:26.171Z,86.79
2022-11-29T10:50:29.408Z,87.13
2022-11-29T10:51:31.213Z,87.10
2022-11-29T10:52:32.904Z,87.42
2022-11-29T10:53:37.595Z,87.09
2022-11-29T10:54:41.450Z,87.00
2022-11-29T10:56:07.488Z,86.94
2022-11-29T10:57:16.558Z,87.43
2022-11-29T10:58:28.415Z,87.28
2022-11-29T10:59:30.693Z,87.00
2022-11-29T11:00:32.240Z,87.02
2022-11-29T11:01:43.018Z,87.08
2022-11-29T11:02:44.596Z,87.28
2022-11-29T11:03:55.357Z,87.38
2022-11-29T11:04:57.227Z,87.54
2022-11-29T11:06:00.788Z,86.97
2022-11-29T11:07:03.551Z,86.69
2022-11-29T11:08:05.673Z,86.41
2022-11-29T11:09:31.005Z,86.37
2022-11-29T11:10:32.622Z,86.60
2022-11-29T11:11:34.192Z,86.43
2022-11-29T11:12:37.110Z,87.02
2022-11-29T11:13:39.490Z,87.05
2022-11-29T11:14:41.219Z,86.93
2022-11-29T11:15:42.792Z,86.91
2022-11-29T11:16:44.446Z,86.62
2022-11-29T11:17:56.977Z,86.63
2022-11-29T11:18:58.647Z,86.59
2022-11-29T11:20:05.876Z,86.34
2022-11-29T11:21:11.928Z,86.59
2022-11-29T11:22:20.518Z,86.56
2022-11-29T11:23:38.654Z,86.45
2022-11-29T11:24:43.259Z,86.62
2022-11-29T11:25:45.656Z,86.90
2022-11-29T11:26:47.274Z,86.99
2022-11-29T11:27:48.820Z,86.81
2022-11-29T11:28:58.394Z,87.03
2022-11-29T11:30:00.168Z,86.97
2022-11-29T11:31:03.666Z,86.95
2022-11-29T11:32:05.512Z,86.07
2022-11-29T11:33:25.349Z,85.88
2022-11-29T11:34:36.877Z,86.05
2022-11-29T11:35:38.410Z,86.03
2022-11-29T11:36:40.022Z,85.80
2022-11-29T11:37:41.647Z,86.08
2022-11-29T11:38:53.354Z,85.95
2022-11-29T11:39:59.992Z,85.91
2022-11-29T11:41:16.686Z,85.84
2022-11-29T11:42:39.622Z,85.90
2022-11-29T11:43:41.349Z,85.72
2022-11-29T11:44:49.863Z,86.12
2022-11-29T11:45:52.366Z,86.11
2022-11-29T11:46:54.000Z,86.27
2022-11-29T11:47:58.205Z,85.47
2022-11-29T11:48:59.740Z,85.55
2022-11-29T11:50:04.033Z,85.54
2022-11-29T11:51:05.673Z,85.37
2022-11-29T11:52:07.369Z,85.61
2022-11-29T11:53:19.326Z,85.56
2022-11-29T11:54:20.931Z,85.68
2022-11-29T11:55:25.054Z,85.71
2022-11-29T11:56:27.843Z,85.78
2022-11-29T11:57:29.458Z,85.17
2022-11-29T11:58:44.033Z,85.57
2022-11-29T11:59:49.811Z,85.50
2022-11-29T12:01:13.380Z,85.66
2022-11-29T12:02:26.425Z,85.19
2022-11-29T12:03:46.600Z,85.00
2022-11-29T12:04:48.173Z,84.72
2022-11-29T12:05:49.991Z,84.63
2022-11-29T12:06:53.401Z,85.03
2022-11-29T12:08:13.632Z,85.46
2022-11-29T12:09:19.500Z,85.12
2022-11-29T12:10:24.640Z,85.03
2022-11-29T12:11:26.273Z,84.86
2022-11-29T12:12:32.870Z,84.82
2022-11-29T12:13:35.835Z,84.39
2022-11-29T12:14:59.515Z,84.48
2022-11-29T12:16:04.107Z,84.15
2022-11-29T12:17:19.652Z,84.45
2022-11-29T12:18:33.703Z,84.14
2022-11-29T12:19:40.998Z,83.72
2022-11-29T12:20:46.817Z,83.55
2022-11-29T12:21:52.601Z,83.33
2022-11-29T12:22:54.089Z,83.67
2022-11-29T12:24:28.864Z,83.32
2022-11-29T12:25:33.437Z,83.39
2022-11-29T12:28:00.740Z,82.91
2022-11-29T12:29:02.403Z,83.05
2022-11-29T12:30:11.817Z,82.98
2022-11-29T12:31:22.137Z,83.13
2022-11-29T12:32:30.110Z,83.83
2022-11-29T12:33:49.121Z,84.17
2022-11-29T12:35:18.604Z,83.77
2022-11-29T12:36:26.596Z,83.83
2022-11-29T12:37:45.598Z,83.25
2022-11-29T12:38:56.162Z,83.32
2022-11-29T12:40:27.478Z,83.86
2022-11-29T12:41:54.042Z,83.68
2022-11-29T12:43:13.003Z,83.53
2022-11-29T12:44:37.857Z,83.61
2022-11-29T12:45:49.636Z,83.46
2022-11-29T12:47:34.117Z,83.46
2022-11-29T12:48:30.681Z,83.35
2022-11-29T12:49:43.576Z,83.26
2022-11-29T12:51:20.235Z,83.37
2022-11-29T12:52:44.759Z,83.72
2022-11-29T12:53:53.935Z,84.02
2022-11-29T12:55:16.847Z,83.83
2022-11-29T12:56:33.495Z,84.14
2022-11-29T12:57:43.638Z,83.92
2022-11-29T12:59:14.168Z,83.96
2022-11-29T13:00:16.754Z,83.43
2022-11-29T13:01:30.329Z,83.18
2022-11-29T13:02:37.922Z,83.76
2022-11-29T13:03:49.597Z,84.11
2022-11-29T13:05:09.637Z,84.40
2022-11-29T13:06:39.113Z,84.60
2022-11-29T13:08:02.886Z,84.26
2022-11-29T13:09:04.525Z,84.59
2022-11-29T13:10:25.581Z,84.84
2022-11-29T13:11:32.185Z,85.16
2022-11-29T13:12:41.797Z,84.70
2022-11-29T13:13:53.274Z,84.66
2022-11-29T13:15:03.936Z,84.59
2022-11-29T13:17:54.822Z,85.22
2022-11-29T13:19:05.690Z,85.26
2022-11-29T13:20:30.836Z,85.04
2022-11-29T13:21:39.315Z,84.79
2022-11-29T13:22:50.229Z,84.79
2022-11-29T13:24:10.183Z,84.60
2022-11-29T13:25:26.007Z,84.40
2022-11-29T13:26:28.008Z,84.53
2022-11-29T13:27:38.464Z,84.72
2022-11-29T13:28:41.294Z,84.44
2022-11-29T13:29:42.866Z,84.53
2022-11-29T13:30:44.486Z,84.55
2022-11-29T13:31:46.371Z,84.39
2022-11-29T13:32:51.315Z,84.51
2022-11-29T13:34:24.153Z,84.68
2022-11-29T13:35:46.908Z,84.19
2022-11-29T13:36:59.780Z,84.39
2022-11-29T13:38:07.928Z,84.18
2022-11-29T13:39:33.558Z,84.21
2022-11-29T13:40:38.660Z,84.60
2022-11-29T13:41:48.423Z,85.02
2022-11-29T13:43:01.737Z,84.77
2022-11-29T13:44:21.639Z,85.20
2022-11-29T13:45:51.258Z,85.58
2022-11-29T13:47:06.855Z,85.77
2022-11-29T13:48:48.400Z,86.26
2022-11-29T13:49:53.041Z,86.48
2022-11-29T13:50:55.811Z,86.59
2022-11-29T13:52:04.658Z,86.64
2022-11-29T13:53:13.572Z,86.70
2022-11-29T13:54:26.989Z,87.16
2022-11-29T13:55:31.664Z,87.09
2022-11-29T13:56:46.611Z,87.30
2022-11-29T13:58:15.094Z,87.48
2022-11-29T13:59:22.996Z,87.68
2022-11-29T14:00:27.478Z,87.53
2022-11-29T14:01:29.130Z,87.72
2022-11-29T14:02:31.173Z,87.06
2022-11-29T14:03:45.481Z,87.16
2022-11-29T14:04:47.244Z,87.17
2022-11-29T14:06:21.137Z,87.41
2022-11-29T14:07:23.044Z,87.53
2022-11-29T14:09:02.037Z,87.71
2022-11-29T14:10:06.082Z,87.66
2022-11-29T14:11:13.459Z,87.74
2022-11-29T14:12:28.989Z,87.84
2022-11-29T14:13:37.713Z,87.85
2022-11-29T14:14:49.354Z,87.58
2022-11-29T14:15:55.303Z,87.56
2022-11-29T14:17:04.811Z,87.35
2022-11-29T14:18:08.914Z,87.78
2022-11-29T14:19:10.454Z,87.86
2022-11-29T14:20:25.008Z,88.02
2022-11-29T14:21:26.560Z,88.21
2022-11-29T14:22:28.138Z,88.29
2022-11-29T14:23:35.567Z,88.57
2022-11-29T14:24:37.301Z,88.46
2022-11-29T14:25:51.813Z,88.49
2022-11-29T14:26:53.912Z,88.37
2022-11-29T14:27:56.895Z,88.45
2022-11-29T14:28:58.619Z,88.27
2022-11-29T14:30:00.331Z,88.23
2022-11-29T14:31:02.692Z,88.45
2022-11-29T14:32:04.352Z,88.65
2022-11-29T14:33:18.145Z,88.68
2022-11-29T14:34:23.437Z,88.36
2022-11-29T14:36:14.055Z,88.62
2022-11-29T14:37:53.360Z,88.39
2022-11-29T14:39:15.831Z,88.87
2022-11-29T14:40:42.067Z,88.93
2022-11-29T14:41:55.763Z,89.01
2022-11-29T14:42:57.350Z,89.22
2022-11-29T14:44:17.993Z,89.04
2022-11-29T14:45:37.791Z,89.34
2022-11-29T14:46:39.503Z,89.23
2022-11-29T14:47:48.021Z,89.36
2022-11-29T14:48:55.566Z,89.24
2022-11-29T14:49:57.766Z,89.08
2022-11-29T14:51:14.959Z,88.87
2022-11-29T14:52:19.070Z,88.98
2022-11-29T14:53:33.845Z,89.23
2022-11-29T14:54:35.627Z,89.30
2022-11-29T14:55:37.646Z,89.22
2022-11-29T14:56:43.801Z,89.13
2022-11-29T14:57:48.080Z,89.30
2022-11-29T14:59:27.996Z,89.06
2022-11-29T15:00:32.721Z,89.34
2022-11-29T15:01:34.336Z,89.31
2022-11-29T15:02:39.908Z,89.17
2022-11-29T15:03:48.206Z,89.31
2022-11-29T15:04:50.968Z,89.16
2022-11-29T15:06:06.320Z,89.41
2022-11-29T15:07:13.182Z,88.83